sensor_id;sensor_type;location;lat;lon;timestamp;P1;durP1;ratioP1;P2;durP2;ratioP2
68140;SDS011;54941;52.220;104.306;2022-10-31T00:01:55;20.92;;;10.23;;
68140;SDS011;54941;52.220;104.306;2022-10-31T00:04:21;20.75;;;8.88;;
68140;SDS011;54941;52.220;104.306;2022-10-31T00:06:49;17.40;;;8.50;;
68140;SDS011;54941;52.220;104.306;2022-10-31T00:09:15;23.08;;;9.63;;
68140;SDS011;54941;52.220;104.306;2022-10-31T00:11:42;21.80;;;8.88;;
68140;SDS011;54941;52.220;104.306;2022-10-31T00:14:08;19.45;;;8.95;;
68140;SDS011;54941;52.220;104.306;2022-10-31T00:16:35;26.25;;;12.73;;
68140;SDS011;54941;52.220;104.306;2022-10-31T00:19:02;25.38;;;10.18;;
68140;SDS011;54941;52.220;104.306;2022-10-31T00:21:31;22.52;;;11.20;;
68140;SDS011;54941;52.220;104.306;2022-10-31T00:23:59;24.38;;;11.88;;
68140;SDS011;54941;52.220;104.306;2022-10-31T00:26:26;25.92;;;11.82;;
68140;SDS011;54941;52.220;104.306;2022-10-31T00:28:53;24.70;;;12.80;;
68140;SDS011;54941;52.220;104.306;2022-10-31T00:31:20;26.23;;;13.18;;
68140;SDS011;54941;52.220;104.306;2022-10-31T00:33:46;26.85;;;11.65;;
68140;SDS011;54941;52.220;104.306;2022-10-31T00:36:13;29.58;;;13.18;;
68140;SDS011;54941;52.220;104.306;2022-10-31T00:38:41;27.35;;;11.90;;
68140;SDS011;54941;52.220;104.306;2022-10-31T00:41:10;23.63;;;13.23;;
68140;SDS011;54941;52.220;104.306;2022-10-31T00:43:37;25.52;;;13.27;;
68140;SDS011;54941;52.220;104.306;2022-10-31T00:46:03;26.52;;;13.95;;
68140;SDS011;54941;52.220;104.306;2022-10-31T00:48:30;27.63;;;14.85;;
68140;SDS011;54941;52.220;104.306;2022-10-31T00:50:57;27.35;;;12.30;;
68140;SDS011;54941;52.220;104.306;2022-10-31T00:53:23;28.48;;;14.27;;
68140;SDS011;54941;52.220;104.306;2022-10-31T00:55:50;28.08;;;13.38;;
68140;SDS011;54941;52.220;104.306;2022-10-31T00:58:18;34.13;;;14.60;;
68140;SDS011;54941;52.220;104.306;2022-10-31T01:00:46;31.90;;;16.17;;
68140;SDS011;54941;52.220;104.306;2022-10-31T01:03:13;34.08;;;14.98;;
68140;SDS011;54941;52.220;104.306;2022-10-31T01:05:40;36.03;;;16.70;;
68140;SDS011;54941;52.220;104.306;2022-10-31T01:08:06;35.28;;;15.95;;
68140;SDS011;54941;52.220;104.306;2022-10-31T01:10:32;47.75;;;23.70;;
68140;SDS011;54941;52.220;104.306;2022-10-31T01:12:59;42.10;;;18.65;;
68140;SDS011;54941;52.220;104.306;2022-10-31T01:15:29;24.88;;;12.75;;
68140;SDS011;54941;52.220;104.306;2022-10-31T01:20:43;27.60;;;12.68;;
68140;SDS011;54941;52.220;104.306;2022-10-31T01:23:10;32.63;;;15.85;;
68140;SDS011;54941;52.220;104.306;2022-10-31T01:25:36;34.03;;;17.83;;
68140;SDS011;54941;52.220;104.306;2022-10-31T01:28:03;35.42;;;17.35;;
68140;SDS011;54941;52.220;104.306;2022-10-31T01:30:31;38.50;;;17.98;;
68140;SDS011;54941;52.220;104.306;2022-10-31T01:32:57;43.17;;;20.80;;
68140;SDS011;54941;52.220;104.306;2022-10-31T01:35:24;35.97;;;19.15;;
68140;SDS011;54941;52.220;104.306;2022-10-31T01:37:50;32.60;;;17.95;;
68140;SDS011;54941;52.220;104.306;2022-10-31T01:40:17;38.58;;;19.27;;
68140;SDS011;54941;52.220;104.306;2022-10-31T01:42:43;36.78;;;18.38;;
68140;SDS011;54941;52.220;104.306;2022-10-31T01:45:10;36.95;;;18.17;;
68140;SDS011;54941;52.220;104.306;2022-10-31T01:47:42;37.88;;;18.15;;
68140;SDS011;54941;52.220;104.306;2022-10-31T01:50:13;37.28;;;18.15;;
68140;SDS011;54941;52.220;104.306;2022-10-31T01:52:46;34.47;;;18.48;;
68140;SDS011;54941;52.220;104.306;2022-10-31T01:55:15;34.42;;;17.73;;
68140;SDS011;54941;52.220;104.306;2022-10-31T01:57:45;35.38;;;17.00;;
68140;SDS011;54941;52.220;104.306;2022-10-31T02:00:15;34.85;;;17.30;;
68140;SDS011;54941;52.220;104.306;2022-10-31T02:02:44;32.22;;;17.42;;
68140;SDS011;54941;52.220;104.306;2022-10-31T02:05:12;36.75;;;16.42;;
68140;SDS011;54941;52.220;104.306;2022-10-31T02:07:42;35.58;;;16.77;;
68140;SDS011;54941;52.220;104.306;2022-10-31T02:10:14;28.73;;;13.00;;
68140;SDS011;54941;52.220;104.306;2022-10-31T02:12:42;29.35;;;13.50;;
68140;SDS011;54941;52.220;104.306;2022-10-31T02:15:10;27.75;;;13.73;;
68140;SDS011;54941;52.220;104.306;2022-10-31T02:17:36;25.38;;;13.30;;
68140;SDS011;54941;52.220;104.306;2022-10-31T02:20:08;19.35;;;10.73;;
68140;SDS011;54941;52.220;104.306;2022-10-31T02:22:42;22.20;;;12.02;;
68140;SDS011;54941;52.220;104.306;2022-10-31T02:25:35;26.45;;;14.32;;
68140;SDS011;54941;52.220;104.306;2022-10-31T02:28:21;30.73;;;16.70;;
68140;SDS011;54941;52.220;104.306;2022-10-31T02:31:08;30.60;;;18.23;;
68140;SDS011;54941;52.220;104.306;2022-10-31T02:33:45;9.77;;;5.07;;
68140;SDS011;54941;52.220;104.306;2022-10-31T02:36:17;9.32;;;4.13;;
68140;SDS011;54941;52.220;104.306;2022-10-31T02:38:51;8.88;;;4.20;;
68140;SDS011;54941;52.220;104.306;2022-10-31T02:41:26;9.23;;;4.35;;
68140;SDS011;54941;52.220;104.306;2022-10-31T02:44:00;9.40;;;4.35;;
68140;SDS011;54941;52.220;104.306;2022-10-31T02:46:35;7.43;;;4.05;;
68140;SDS011;54941;52.220;104.306;2022-10-31T02:49:06;6.57;;;3.53;;
68140;SDS011;54941;52.220;104.306;2022-10-31T02:51:37;12.13;;;4.85;;
68140;SDS011;54941;52.220;104.306;2022-10-31T02:54:05;10.60;;;4.70;;
68140;SDS011;54941;52.220;104.306;2022-10-31T02:56:41;8.35;;;4.43;;
68140;SDS011;54941;52.220;104.306;2022-10-31T02:59:07;9.38;;;5.10;;
68140;SDS011;54941;52.220;104.306;2022-10-31T03:01:42;8.18;;;4.72;;
68140;SDS011;54941;52.220;104.306;2022-10-31T03:04:27;11.02;;;5.20;;
68140;SDS011;54941;52.220;104.306;2022-10-31T03:07:07;12.35;;;5.38;;
68140;SDS011;54941;52.220;104.306;2022-10-31T03:09:40;9.35;;;5.63;;
68140;SDS011;54941;52.220;104.306;2022-10-31T03:12:13;10.43;;;4.63;;
68140;SDS011;54941;52.220;104.306;2022-10-31T03:14:47;10.45;;;4.43;;
68140;SDS011;54941;52.220;104.306;2022-10-31T03:17:22;7.47;;;4.03;;
68140;SDS011;54941;52.220;104.306;2022-10-31T03:19:56;7.47;;;4.35;;
68140;SDS011;54941;52.220;104.306;2022-10-31T03:22:27;7.20;;;4.85;;
68140;SDS011;54941;52.220;104.306;2022-10-31T03:24:56;9.75;;;4.00;;
68140;SDS011;54941;52.220;104.306;2022-10-31T03:27:26;9.32;;;4.13;;
68140;SDS011;54941;52.220;104.306;2022-10-31T03:29:56;7.95;;;3.78;;
68140;SDS011;54941;52.220;104.306;2022-10-31T03:32:29;9.13;;;3.70;;
68140;SDS011;54941;52.220;104.306;2022-10-31T03:35:00;6.53;;;3.92;;
68140;SDS011;54941;52.220;104.306;2022-10-31T03:37:30;8.30;;;4.22;;
68140;SDS011;54941;52.220;104.306;2022-10-31T03:39:58;7.05;;;4.22;;
68140;SDS011;54941;52.220;104.306;2022-10-31T03:42:29;9.35;;;4.57;;
68140;SDS011;54941;52.220;104.306;2022-10-31T03:44:59;7.10;;;3.58;;
68140;SDS011;54941;52.220;104.306;2022-10-31T03:47:32;7.90;;;3.25;;
68140;SDS011;54941;52.220;104.306;2022-10-31T03:49:59;12.18;;;3.90;;
68140;SDS011;54941;52.220;104.306;2022-10-31T03:52:26;9.45;;;4.82;;
68140;SDS011;54941;52.220;104.306;2022-10-31T03:54:59;8.82;;;4.50;;
68140;SDS011;54941;52.220;104.306;2022-10-31T03:57:33;9.63;;;4.45;;
68140;SDS011;54941;52.220;104.306;2022-10-31T04:00:05;9.85;;;5.53;;
68140;SDS011;54941;52.220;104.306;2022-10-31T04:02:36;9.63;;;4.70;;
68140;SDS011;54941;52.220;104.306;2022-10-31T04:05:06;9.38;;;4.13;;
68140;SDS011;54941;52.220;104.306;2022-10-31T04:07:36;8.82;;;5.30;;
68140;SDS011;54941;52.220;104.306;2022-10-31T04:10:07;8.95;;;4.38;;
68140;SDS011;54941;52.220;104.306;2022-10-31T04:12:38;12.85;;;4.93;;
68140;SDS011;54941;52.220;104.306;2022-10-31T04:15:07;6.03;;;3.65;;
68140;SDS011;54941;52.220;104.306;2022-10-31T04:17:38;10.73;;;4.38;;
68140;SDS011;54941;52.220;104.306;2022-10-31T04:20:29;9.10;;;4.85;;
68140;SDS011;54941;52.220;104.306;2022-10-31T04:22:56;11.30;;;4.93;;
68140;SDS011;54941;52.220;104.306;2022-10-31T04:25:23;7.63;;;4.88;;
68140;SDS011;54941;52.220;104.306;2022-10-31T04:27:49;8.77;;;4.95;;
68140;SDS011;54941;52.220;104.306;2022-10-31T04:30:16;9.45;;;3.65;;
68140;SDS011;54941;52.220;104.306;2022-10-31T04:32:44;8.15;;;4.05;;
68140;SDS011;54941;52.220;104.306;2022-10-31T04:35:10;7.30;;;4.63;;
68140;SDS011;54941;52.220;104.306;2022-10-31T04:37:37;7.80;;;4.25;;
68140;SDS011;54941;52.220;104.306;2022-10-31T04:40:04;9.30;;;4.13;;
68140;SDS011;54941;52.220;104.306;2022-10-31T04:42:31;9.07;;;5.20;;
68140;SDS011;54941;52.220;104.306;2022-10-31T04:44:57;7.38;;;4.45;;
68140;SDS011;54941;52.220;104.306;2022-10-31T04:47:24;6.47;;;3.60;;
68140;SDS011;54941;52.220;104.306;2022-10-31T04:49:52;10.40;;;5.00;;
68140;SDS011;54941;52.220;104.306;2022-10-31T04:52:18;7.75;;;3.53;;
68140;SDS011;54941;52.220;104.306;2022-10-31T04:54:45;9.45;;;4.43;;
68140;SDS011;54941;52.220;104.306;2022-10-31T04:57:11;9.73;;;4.85;;
68140;SDS011;54941;52.220;104.306;2022-10-31T04:59:37;9.30;;;5.43;;
68140;SDS011;54941;52.220;104.306;2022-10-31T05:02:04;8.25;;;4.25;;
68140;SDS011;54941;52.220;104.306;2022-10-31T05:04:30;10.18;;;4.40;;
68140;SDS011;54941;52.220;104.306;2022-10-31T05:06:58;10.98;;;6.28;;
68140;SDS011;54941;52.220;104.306;2022-10-31T05:09:25;11.20;;;6.25;;
68140;SDS011;54941;52.220;104.306;2022-10-31T05:11:51;12.23;;;7.00;;
68140;SDS011;54941;52.220;104.306;2022-10-31T05:14:18;10.88;;;6.25;;
68140;SDS011;54941;52.220;104.306;2022-10-31T05:16:44;11.55;;;6.13;;
68140;SDS011;54941;52.220;104.306;2022-10-31T05:19:10;13.13;;;7.18;;
68140;SDS011;54941;52.220;104.306;2022-10-31T05:21:37;10.68;;;5.20;;
68140;SDS011;54941;52.220;104.306;2022-10-31T05:24:05;11.77;;;6.22;;
68140;SDS011;54941;52.220;104.306;2022-10-31T05:26:34;8.88;;;4.78;;
68140;SDS011;54941;52.220;104.306;2022-10-31T05:29:00;9.13;;;4.30;;
68140;SDS011;54941;52.220;104.306;2022-10-31T05:31:27;10.45;;;6.18;;
68140;SDS011;54941;52.220;104.306;2022-10-31T05:33:53;13.52;;;7.13;;
68140;SDS011;54941;52.220;104.306;2022-10-31T05:36:20;10.98;;;5.05;;
68140;SDS011;54941;52.220;104.306;2022-10-31T05:38:46;9.70;;;5.10;;
68140;SDS011;54941;52.220;104.306;2022-10-31T05:41:14;9.98;;;4.78;;
68140;SDS011;54941;52.220;104.306;2022-10-31T05:43:42;10.02;;;5.70;;
68140;SDS011;54941;52.220;104.306;2022-10-31T05:46:09;10.13;;;3.97;;
68140;SDS011;54941;52.220;104.306;2022-10-31T05:48:35;8.35;;;5.57;;
68140;SDS011;54941;52.220;104.306;2022-10-31T05:51:02;9.93;;;4.53;;
68140;SDS011;54941;52.220;104.306;2022-10-31T05:53:28;9.07;;;5.30;;
68140;SDS011;54941;52.220;104.306;2022-10-31T05:55:55;7.75;;;4.43;;
68140;SDS011;54941;52.220;104.306;2022-10-31T05:58:23;5.65;;;3.50;;
68140;SDS011;54941;52.220;104.306;2022-10-31T06:00:49;7.90;;;3.47;;
68140;SDS011;54941;52.220;104.306;2022-10-31T06:03:16;6.05;;;3.92;;
68140;SDS011;54941;52.220;104.306;2022-10-31T06:05:42;6.63;;;3.22;;
68140;SDS011;54941;52.220;104.306;2022-10-31T06:08:09;5.95;;;3.45;;
68140;SDS011;54941;52.220;104.306;2022-10-31T06:10:35;6.53;;;3.80;;
68140;SDS011;54941;52.220;104.306;2022-10-31T06:13:01;5.90;;;3.15;;
68140;SDS011;54941;52.220;104.306;2022-10-31T06:15:29;5.35;;;3.17;;
68140;SDS011;54941;52.220;104.306;2022-10-31T06:18:00;6.40;;;2.80;;
68140;SDS011;54941;52.220;104.306;2022-10-31T06:20:28;5.65;;;2.72;;
68140;SDS011;54941;52.220;104.306;2022-10-31T06:22:54;4.20;;;2.42;;
68140;SDS011;54941;52.220;104.306;2022-10-31T06:25:23;7.57;;;3.30;;
68140;SDS011;54941;52.220;104.306;2022-10-31T06:27:50;4.50;;;2.53;;
68140;SDS011;54941;52.220;104.306;2022-10-31T06:30:16;4.25;;;3.20;;
68140;SDS011;54941;52.220;104.306;2022-10-31T06:32:44;5.55;;;3.63;;
68140;SDS011;54941;52.220;104.306;2022-10-31T06:35:11;5.65;;;3.28;;
68140;SDS011;54941;52.220;104.306;2022-10-31T06:37:37;4.45;;;2.78;;
68140;SDS011;54941;52.220;104.306;2022-10-31T06:40:04;5.72;;;2.38;;
68140;SDS011;54941;52.220;104.306;2022-10-31T06:42:31;6.32;;;2.45;;
68140;SDS011;54941;52.220;104.306;2022-10-31T06:44:58;4.30;;;2.22;;
68140;SDS011;54941;52.220;104.306;2022-10-31T06:47:24;4.57;;;2.67;;
68140;SDS011;54941;52.220;104.306;2022-10-31T06:49:52;5.35;;;2.85;;
68140;SDS011;54941;52.220;104.306;2022-10-31T06:52:19;5.78;;;2.67;;
68140;SDS011;54941;52.220;104.306;2022-10-31T06:54:45;5.00;;;2.35;;
68140;SDS011;54941;52.220;104.306;2022-10-31T06:57:12;5.72;;;2.50;;
68140;SDS011;54941;52.220;104.306;2022-10-31T06:59:38;7.80;;;3.22;;
68140;SDS011;54941;52.220;104.306;2022-10-31T07:02:05;5.97;;;3.50;;
68140;SDS011;54941;52.220;104.306;2022-10-31T07:04:34;4.57;;;2.95;;
68140;SDS011;54941;52.220;104.306;2022-10-31T07:07:02;5.03;;;2.70;;
68140;SDS011;54941;52.220;104.306;2022-10-31T07:09:29;11.15;;;3.80;;
68140;SDS011;54941;52.220;104.306;2022-10-31T07:11:55;4.50;;;3.05;;
68140;SDS011;54941;52.220;104.306;2022-10-31T07:14:22;6.25;;;3.00;;
68140;SDS011;54941;52.220;104.306;2022-10-31T07:16:48;5.32;;;2.42;;
68140;SDS011;54941;52.220;104.306;2022-10-31T07:19:15;4.13;;;2.50;;
68140;SDS011;54941;52.220;104.306;2022-10-31T07:21:42;4.40;;;2.10;;
68140;SDS011;54941;52.220;104.306;2022-10-31T07:24:10;6.82;;;2.70;;
68140;SDS011;54941;52.220;104.306;2022-10-31T07:26:36;5.13;;;3.55;;
68140;SDS011;54941;52.220;104.306;2022-10-31T07:29:02;5.25;;;3.10;;
68140;SDS011;54941;52.220;104.306;2022-10-31T07:31:29;5.32;;;2.80;;
68140;SDS011;54941;52.220;104.306;2022-10-31T07:33:55;3.85;;;2.75;;
68140;SDS011;54941;52.220;104.306;2022-10-31T07:36:22;4.70;;;2.60;;
68140;SDS011;54941;52.220;104.306;2022-10-31T07:38:49;4.70;;;2.92;;
68140;SDS011;54941;52.220;104.306;2022-10-31T07:41:17;3.80;;;2.70;;
68140;SDS011;54941;52.220;104.306;2022-10-31T07:43:43;5.57;;;2.92;;
68140;SDS011;54941;52.220;104.306;2022-10-31T07:46:10;5.50;;;2.63;;
68140;SDS011;54941;52.220;104.306;2022-10-31T07:48:37;4.80;;;2.10;;
68140;SDS011;54941;52.220;104.306;2022-10-31T07:51:03;4.50;;;2.05;;
68140;SDS011;54941;52.220;104.306;2022-10-31T07:53:30;6.47;;;2.75;;
68140;SDS011;54941;52.220;104.306;2022-10-31T07:55:57;6.00;;;2.80;;
68140;SDS011;54941;52.220;104.306;2022-10-31T07:58:25;5.15;;;2.42;;
68140;SDS011;54941;52.220;104.306;2022-10-31T08:00:51;4.43;;;2.20;;
68140;SDS011;54941;52.220;104.306;2022-10-31T08:03:18;6.30;;;2.83;;
68140;SDS011;54941;52.220;104.306;2022-10-31T08:05:45;5.78;;;3.38;;
68140;SDS011;54941;52.220;104.306;2022-10-31T08:08:11;5.32;;;3.22;;
68140;SDS011;54941;52.220;104.306;2022-10-31T08:10:39;6.10;;;3.17;;
68140;SDS011;54941;52.220;104.306;2022-10-31T08:13:06;5.70;;;2.90;;
68140;SDS011;54941;52.220;104.306;2022-10-31T08:15:36;6.45;;;3.08;;
68140;SDS011;54941;52.220;104.306;2022-10-31T08:18:02;5.53;;;3.33;;
68140;SDS011;54941;52.220;104.306;2022-10-31T08:20:29;5.55;;;3.10;;
68140;SDS011;54941;52.220;104.306;2022-10-31T08:22:56;6.10;;;2.42;;
68140;SDS011;54941;52.220;104.306;2022-10-31T08:25:23;5.07;;;3.17;;
68140;SDS011;54941;52.220;104.306;2022-10-31T08:27:51;4.45;;;2.10;;
68140;SDS011;54941;52.220;104.306;2022-10-31T08:30:17;4.45;;;2.38;;
68140;SDS011;54941;52.220;104.306;2022-10-31T08:32:46;4.03;;;2.25;;
68140;SDS011;54941;52.220;104.306;2022-10-31T08:35:12;6.32;;;2.38;;
68140;SDS011;54941;52.220;104.306;2022-10-31T08:37:39;4.15;;;2.20;;
68140;SDS011;54941;52.220;104.306;2022-10-31T08:40:06;4.95;;;3.03;;
68140;SDS011;54941;52.220;104.306;2022-10-31T08:42:33;6.00;;;3.15;;
68140;SDS011;54941;52.220;104.306;2022-10-31T08:44:59;4.78;;;2.63;;
68140;SDS011;54941;52.220;104.306;2022-10-31T08:47:26;3.83;;;2.30;;
68140;SDS011;54941;52.220;104.306;2022-10-31T08:49:54;6.13;;;2.95;;
68140;SDS011;54941;52.220;104.306;2022-10-31T08:52:23;4.93;;;3.00;;
68140;SDS011;54941;52.220;104.306;2022-10-31T08:54:49;5.13;;;2.78;;
68140;SDS011;54941;52.220;104.306;2022-10-31T08:57:16;3.85;;;2.22;;
68140;SDS011;54941;52.220;104.306;2022-10-31T08:59:42;5.07;;;2.67;;
68140;SDS011;54941;52.220;104.306;2022-10-31T09:02:09;4.97;;;3.08;;
68140;SDS011;54941;52.220;104.306;2022-10-31T09:04:35;24.42;;;8.40;;
68140;SDS011;54941;52.220;104.306;2022-10-31T09:07:03;11.15;;;5.47;;
68140;SDS011;54941;52.220;104.306;2022-10-31T09:09:30;9.45;;;4.50;;
68140;SDS011;54941;52.220;104.306;2022-10-31T09:11:56;6.85;;;3.33;;
68140;SDS011;54941;52.220;104.306;2022-10-31T09:14:23;7.32;;;3.97;;
68140;SDS011;54941;52.220;104.306;2022-10-31T09:16:50;10.45;;;4.55;;
68140;SDS011;54941;52.220;104.306;2022-10-31T09:19:17;6.57;;;3.47;;
68140;SDS011;54941;52.220;104.306;2022-10-31T09:21:43;6.85;;;3.72;;
68140;SDS011;54941;52.220;104.306;2022-10-31T09:24:11;5.38;;;3.55;;
68140;SDS011;54941;52.220;104.306;2022-10-31T09:26:38;6.57;;;4.07;;
68140;SDS011;54941;52.220;104.306;2022-10-31T09:29:04;7.57;;;4.82;;
68140;SDS011;54941;52.220;104.306;2022-10-31T09:31:31;5.70;;;2.90;;
68140;SDS011;54941;52.220;104.306;2022-10-31T09:33:57;5.75;;;3.03;;
68140;SDS011;54941;52.220;104.306;2022-10-31T09:36:24;7.70;;;3.83;;
68140;SDS011;54941;52.220;104.306;2022-10-31T09:38:51;11.32;;;5.40;;
68140;SDS011;54941;52.220;104.306;2022-10-31T09:41:19;11.25;;;5.45;;
68140;SDS011;54941;52.220;104.306;2022-10-31T09:43:56;9.18;;;4.65;;
68140;SDS011;54941;52.220;104.306;2022-10-31T09:46:32;15.45;;;8.32;;
68140;SDS011;54941;52.220;104.306;2022-10-31T09:51:55;12.15;;;6.95;;
68140;SDS011;54941;52.220;104.306;2022-10-31T09:54:28;13.82;;;7.40;;
68140;SDS011;54941;52.220;104.306;2022-10-31T09:57:00;15.15;;;8.63;;
68140;SDS011;54941;52.220;104.306;2022-10-31T09:59:28;16.40;;;8.68;;
68140;SDS011;54941;52.220;104.306;2022-10-31T10:02:00;11.88;;;6.20;;
68140;SDS011;54941;52.220;104.306;2022-10-31T10:04:41;13.30;;;7.82;;
68140;SDS011;54941;52.220;104.306;2022-10-31T10:07:12;12.40;;;6.25;;
68140;SDS011;54941;52.220;104.306;2022-10-31T10:09:45;7.18;;;4.15;;
68140;SDS011;54941;52.220;104.306;2022-10-31T10:12:16;9.95;;;4.60;;
68140;SDS011;54941;52.220;104.306;2022-10-31T10:15:05;8.05;;;4.90;;
68140;SDS011;54941;52.220;104.306;2022-10-31T10:18:00;8.93;;;3.92;;
68140;SDS011;54941;52.220;104.306;2022-10-31T10:20:35;10.68;;;4.90;;
68140;SDS011;54941;52.220;104.306;2022-10-31T10:25:59;14.57;;;6.95;;
68140;SDS011;54941;52.220;104.306;2022-10-31T10:28:32;11.70;;;7.43;;
68140;SDS011;54941;52.220;104.306;2022-10-31T10:31:03;11.45;;;5.88;;
68140;SDS011;54941;52.220;104.306;2022-10-31T10:33:35;9.82;;;5.68;;
68140;SDS011;54941;52.220;104.306;2022-10-31T10:36:05;9.45;;;5.50;;
68140;SDS011;54941;52.220;104.306;2022-10-31T10:38:37;11.18;;;5.60;;
68140;SDS011;54941;52.220;104.306;2022-10-31T10:41:14;10.82;;;5.90;;
68140;SDS011;54941;52.220;104.306;2022-10-31T10:43:44;14.65;;;7.43;;
68140;SDS011;54941;52.220;104.306;2022-10-31T10:46:16;13.60;;;7.00;;
68140;SDS011;54941;52.220;104.306;2022-10-31T10:48:45;13.25;;;7.03;;
68140;SDS011;54941;52.220;104.306;2022-10-31T10:51:21;13.88;;;6.95;;
68140;SDS011;54941;52.220;104.306;2022-10-31T10:53:56;9.73;;;6.45;;
68140;SDS011;54941;52.220;104.306;2022-10-31T10:56:32;12.45;;;6.35;;
68140;SDS011;54941;52.220;104.306;2022-10-31T10:59:08;9.07;;;5.15;;
68140;SDS011;54941;52.220;104.306;2022-10-31T11:01:38;9.38;;;5.72;;
68140;SDS011;54941;52.220;104.306;2022-10-31T11:04:07;10.13;;;5.32;;
68140;SDS011;54941;52.220;104.306;2022-10-31T11:06:56;14.38;;;6.40;;
68140;SDS011;54941;52.220;104.306;2022-10-31T11:11:49;12.70;;;6.10;;
68140;SDS011;54941;52.220;104.306;2022-10-31T11:14:17;16.58;;;6.18;;
68140;SDS011;54941;52.220;104.306;2022-10-31T11:16:45;14.10;;;6.70;;
68140;SDS011;54941;52.220;104.306;2022-10-31T11:19:15;12.32;;;6.82;;
68140;SDS011;54941;52.220;104.306;2022-10-31T11:21:43;14.65;;;6.13;;
68140;SDS011;54941;52.220;104.306;2022-10-31T11:24:13;16.95;;;7.53;;
68140;SDS011;54941;52.220;104.306;2022-10-31T11:26:42;12.77;;;5.60;;
68140;SDS011;54941;52.220;104.306;2022-10-31T11:29:14;12.98;;;5.95;;
68140;SDS011;54941;52.220;104.306;2022-10-31T11:31:46;13.32;;;5.82;;
68140;SDS011;54941;52.220;104.306;2022-10-31T11:34:14;19.17;;;8.95;;
68140;SDS011;54941;52.220;104.306;2022-10-31T11:36:44;11.38;;;5.57;;
68140;SDS011;54941;52.220;104.306;2022-10-31T11:39:16;10.65;;;6.07;;
68140;SDS011;54941;52.220;104.306;2022-10-31T11:41:46;12.43;;;6.35;;
68140;SDS011;54941;52.220;104.306;2022-10-31T11:44:15;12.70;;;5.57;;
68140;SDS011;54941;52.220;104.306;2022-10-31T11:46:46;11.52;;;5.50;;
68140;SDS011;54941;52.220;104.306;2022-10-31T11:49:16;9.65;;;5.80;;
68140;SDS011;54941;52.220;104.306;2022-10-31T11:51:47;14.48;;;6.32;;
68140;SDS011;54941;52.220;104.306;2022-10-31T11:54:18;13.40;;;6.05;;
68140;SDS011;54941;52.220;104.306;2022-10-31T11:56:47;13.95;;;6.45;;
68140;SDS011;54941;52.220;104.306;2022-10-31T11:59:21;17.25;;;6.78;;
68140;SDS011;54941;52.220;104.306;2022-10-31T12:01:50;13.50;;;6.43;;
68140;SDS011;54941;52.220;104.306;2022-10-31T12:04:18;20.67;;;6.68;;
68140;SDS011;54941;52.220;104.306;2022-10-31T12:06:49;14.02;;;5.68;;
68140;SDS011;54941;52.220;104.306;2022-10-31T12:09:19;13.43;;;5.90;;
68140;SDS011;54941;52.220;104.306;2022-10-31T12:11:54;11.43;;;5.45;;
68140;SDS011;54941;52.220;104.306;2022-10-31T12:14:39;12.88;;;6.57;;
68140;SDS011;54941;52.220;104.306;2022-10-31T12:17:15;16.88;;;6.68;;
68140;SDS011;54941;52.220;104.306;2022-10-31T12:19:45;13.68;;;7.38;;
68140;SDS011;54941;52.220;104.306;2022-10-31T12:22:23;16.08;;;7.35;;
68140;SDS011;54941;52.220;104.306;2022-10-31T12:27:52;17.02;;;6.32;;
68140;SDS011;54941;52.220;104.306;2022-10-31T12:30:37;13.15;;;6.35;;
68140;SDS011;54941;52.220;104.306;2022-10-31T12:33:18;18.42;;;5.75;;
68140;SDS011;54941;52.220;104.306;2022-10-31T12:36:05;22.48;;;8.30;;
68140;SDS011;54941;52.220;104.306;2022-10-31T12:38:47;15.93;;;7.07;;
68140;SDS011;54941;52.220;104.306;2022-10-31T12:41:39;14.05;;;7.18;;
68140;SDS011;54941;52.220;104.306;2022-10-31T12:44:14;17.38;;;6.13;;
68140;SDS011;54941;52.220;104.306;2022-10-31T12:47:01;13.77;;;5.97;;
68140;SDS011;54941;52.220;104.306;2022-10-31T12:49:49;13.57;;;5.88;;
68140;SDS011;54941;52.220;104.306;2022-10-31T12:52:31;15.48;;;6.65;;
68140;SDS011;54941;52.220;104.306;2022-10-31T12:55:09;13.90;;;5.78;;
68140;SDS011;54941;52.220;104.306;2022-10-31T12:57:46;14.38;;;6.43;;
68140;SDS011;54941;52.220;104.306;2022-10-31T13:00:17;14.43;;;6.80;;
68140;SDS011;54941;52.220;104.306;2022-10-31T13:02:48;16.48;;;6.93;;
68140;SDS011;54941;52.220;104.306;2022-10-31T13:05:18;18.60;;;7.70;;
68140;SDS011;54941;52.220;104.306;2022-10-31T13:07:52;16.23;;;7.40;;
68140;SDS011;54941;52.220;104.306;2022-10-31T13:10:23;15.48;;;7.13;;
68140;SDS011;54941;52.220;104.306;2022-10-31T13:12:53;17.70;;;8.13;;
68140;SDS011;54941;52.220;104.306;2022-10-31T13:15:24;18.05;;;7.55;;
68140;SDS011;54941;52.220;104.306;2022-10-31T13:20:24;16.02;;;6.38;;
68140;SDS011;54941;52.220;104.306;2022-10-31T13:22:54;17.45;;;6.18;;
68140;SDS011;54941;52.220;104.306;2022-10-31T13:25:23;12.30;;;5.78;;
68140;SDS011;54941;52.220;104.306;2022-10-31T13:32:48;14.02;;;6.95;;
68140;SDS011;54941;52.220;104.306;2022-10-31T13:35:21;15.35;;;5.93;;
68140;SDS011;54941;52.220;104.306;2022-10-31T13:37:57;15.48;;;6.22;;
68140;SDS011;54941;52.220;104.306;2022-10-31T13:40:34;12.45;;;5.53;;
68140;SDS011;54941;52.220;104.306;2022-10-31T13:43:06;10.95;;;5.05;;
68140;SDS011;54941;52.220;104.306;2022-10-31T13:45:47;8.90;;;4.25;;
68140;SDS011;54941;52.220;104.306;2022-10-31T13:48:18;10.38;;;5.15;;
68140;SDS011;54941;52.220;104.306;2022-10-31T13:51:01;11.90;;;4.90;;
68140;SDS011;54941;52.220;104.306;2022-10-31T13:53:36;13.10;;;5.30;;
68140;SDS011;54941;52.220;104.306;2022-10-31T13:56:04;14.55;;;4.90;;
68140;SDS011;54941;52.220;104.306;2022-10-31T13:58:41;16.73;;;7.30;;
68140;SDS011;54941;52.220;104.306;2022-10-31T14:01:26;9.10;;;5.13;;
68140;SDS011;54941;52.220;104.306;2022-10-31T14:03:58;16.25;;;6.20;;
68140;SDS011;54941;52.220;104.306;2022-10-31T14:06:40;15.20;;;6.07;;
68140;SDS011;54941;52.220;104.306;2022-10-31T14:09:18;13.68;;;4.97;;
68140;SDS011;54941;52.220;104.306;2022-10-31T14:11:50;12.07;;;6.47;;
68140;SDS011;54941;52.220;104.306;2022-10-31T14:14:19;19.23;;;6.82;;
68140;SDS011;54941;52.220;104.306;2022-10-31T14:16:53;9.25;;;4.85;;
68140;SDS011;54941;52.220;104.306;2022-10-31T14:19:22;12.07;;;4.63;;
68140;SDS011;54941;52.220;104.306;2022-10-31T14:21:51;8.35;;;4.57;;
68140;SDS011;54941;52.220;104.306;2022-10-31T14:27:02;14.68;;;5.20;;
68140;SDS011;54941;52.220;104.306;2022-10-31T14:29:30;9.82;;;4.65;;
68140;SDS011;54941;52.220;104.306;2022-10-31T14:31:59;11.55;;;5.25;;
68140;SDS011;54941;52.220;104.306;2022-10-31T14:34:30;16.02;;;6.47;;
68140;SDS011;54941;52.220;104.306;2022-10-31T14:37:05;11.27;;;5.90;;
68140;SDS011;54941;52.220;104.306;2022-10-31T14:39:55;10.98;;;6.22;;
68140;SDS011;54941;52.220;104.306;2022-10-31T14:42:33;14.40;;;6.90;;
68140;SDS011;54941;52.220;104.306;2022-10-31T14:45:18;11.90;;;5.28;;
68140;SDS011;54941;52.220;104.306;2022-10-31T14:47:55;12.68;;;6.40;;
68140;SDS011;54941;52.220;104.306;2022-10-31T14:50:38;13.65;;;6.35;;
68140;SDS011;54941;52.220;104.306;2022-10-31T14:53:14;13.82;;;7.05;;
68140;SDS011;54941;52.220;104.306;2022-10-31T14:55:45;17.75;;;6.97;;